Time;durP1;ratioP1;P1;durP2;ratioP2;P2;SDS_P1;SDS_P2;PMS_P1;PMS_P2;Temp;Humidity;BMP_temperature;BMP_pressure;BME280_temperature;BME280_humidity;BME280_pressure;Samples;Min_cycle;Max_cycle;Signal;HPM_P1;HPM_P2
2024/01/26 00:01:39;;;;;;;431.13;194.27;;;-0.10;99.90;;;;;;5096633;28;20023;-56
2024/01/26 00:04:04;;;;;;;405.38;178.85;;;-0.10;99.90;;;;;;5096588;28;20024;-56
2024/01/26 00:06:30;;;;;;;399.00;181.60;;;-0.10;99.90;;;;;;5096132;28;20030;-56
2024/01/26 00:08:56;;;;;;;377.20;170.73;;;0.00;99.90;;;;;;5096445;28;20036;-56
2024/01/26 00:11:23;;;;;;;361.60;159.05;;;-0.10;99.90;;;;;;5096532;28;20111;-56
2024/01/26 00:13:49;;;;;;;411.33;185.40;;;-0.10;99.90;;;;;;5096085;28;20093;-56
2024/01/26 00:16:15;;;;;;;264.30;120.60;;;-0.10;99.90;;;;;;5096385;28;20024;-56
2024/01/26 00:18:40;;;;;;;252.20;113.90;;;-0.10;99.90;;;;;;5096233;28;20040;-56
2024/01/26 00:21:07;;;;;;;285.02;127.43;;;-0.10;99.90;;;;;;5096111;28;20085;-56
2024/01/26 00:23:34;;;;;;;317.60;139.38;;;-0.10;99.90;;;;;;5096153;28;20020;-56
2024/01/26 00:26:00;;;;;;;313.67;140.70;;;-0.10;99.90;;;;;;5096381;28;20132;-56
2024/01/26 00:28:26;;;;;;;335.58;145.48;;;-0.20;99.90;;;;;;5095851;28;20132;-56
2024/01/26 00:30:52;;;;;;;310.65;142.32;;;-0.20;99.90;;;;;;5096063;28;20028;-56
2024/01/26 00:33:17;;;;;;;349.13;154.77;;;-0.20;99.90;;;;;;5096103;28;20028;-56
2024/01/26 00:35:43;;;;;;;326.52;144.77;;;-0.20;99.90;;;;;;5095824;28;20020;-56
2024/01/26 00:38:09;;;;;;;327.52;142.93;;;-0.30;99.90;;;;;;5096077;28;20535;-56
2024/01/26 00:40:35;;;;;;;301.80;133.70;;;-0.20;99.90;;;;;;5096005;28;20024;-56
2024/01/26 00:43:01;;;;;;;308.85;135.70;;;-0.30;99.90;;;;;;5095971;28;20089;-56
2024/01/26 00:45:27;;;;;;;314.73;136.55;;;-0.30;99.90;;;;;;5095758;28;20035;-56
2024/01/26 00:47:53;;;;;;;323.48;141.73;;;-0.40;99.90;;;;;;5095757;28;20103;-56
2024/01/26 00:50:19;;;;;;;323.83;142.48;;;-0.40;99.90;;;;;;5095870;28;20063;-56
2024/01/26 00:52:45;;;;;;;290.23;130.77;;;-0.40;99.90;;;;;;5095621;28;20039;-56
2024/01/26 00:55:11;;;;;;;266.67;121.55;;;-0.40;99.90;;;;;;5095874;28;20079;-56
2024/01/26 00:57:37;;;;;;;282.70;123.32;;;-0.30;99.90;;;;;;5095707;28;20032;-56
2024/01/26 01:00:07;;;;;;;265.10;120.15;;;-0.40;99.90;;;;;;5095416;28;20036;-56
2024/01/26 01:02:33;;;;;;;280.17;125.20;;;-0.40;99.90;;;;;;5095714;28;20054;-56
2024/01/26 01:05:00;;;;;;;260.15;114.55;;;-0.50;99.90;;;;;;5095705;28;20031;-56
2024/01/26 01:07:27;;;;;;;263.15;117.65;;;-0.50;99.90;;;;;;5094999;28;20067;-56
2024/01/26 01:09:53;;;;;;;258.27;119.93;;;-0.50;99.90;;;;;;5095350;28;20024;-56
2024/01/26 01:12:18;;;;;;;267.08;117.13;;;-0.50;99.90;;;;;;5095523;28;20024;-56
2024/01/26 01:14:45;;;;;;;259.25;117.97;;;-0.50;99.90;;;;;;5095263;28;20020;-56
2024/01/26 01:17:11;;;;;;;279.35;124.13;;;-0.60;99.90;;;;;;5095129;28;20028;-56
2024/01/26 01:19:37;;;;;;;250.57;114.78;;;-0.50;99.90;;;;;;5095461;28;20496;-56
2024/01/26 01:22:03;;;;;;;277.63;121.25;;;-0.60;99.90;;;;;;5095276;28;20032;-56
2024/01/26 01:24:29;;;;;;;264.85;115.43;;;-0.60;99.90;;;;;;5095298;28;20493;-56
2024/01/26 01:26:55;;;;;;;251.52;117.30;;;-0.60;99.90;;;;;;5095324;28;20024;-56
2024/01/26 01:29:20;;;;;;;293.23;128.52;;;-0.60;99.90;;;;;;5095185;28;20032;-56
2024/01/26 01:31:46;;;;;;;270.17;118.45;;;-0.60;99.90;;;;;;5095354;28;20031;-56
2024/01/26 01:34:12;;;;;;;297.90;131.93;;;-0.60;99.90;;;;;;5095351;28;20069;-56
2024/01/26 01:36:38;;;;;;;298.42;134.88;;;-0.70;99.90;;;;;;5094800;28;20413;-56
2024/01/26 01:39:04;;;;;;;259.00;117.68;;;-0.70;99.90;;;;;;5095390;28;20052;-56
2024/01/26 01:41:30;;;;;;;285.85;128.00;;;-0.70;99.90;;;;;;5095297;28;20028;-56
2024/01/26 01:43:56;;;;;;;250.27;117.32;;;-0.70;99.90;;;;;;5094971;28;20035;-56
2024/01/26 01:46:22;;;;;;;283.60;122.18;;;-0.70;99.90;;;;;;5095313;28;20482;-56
2024/01/26 01:48:50;;;;;;;308.15;138.50;;;-0.80;99.90;;;;;;5095079;28;20028;-56
2024/01/26 01:51:16;;;;;;;371.40;163.88;;;-0.70;99.90;;;;;;5094975;28;20503;-56
2024/01/26 01:53:42;;;;;;;386.15;172.60;;;-0.70;99.90;;;;;;5095015;28;20057;-56
2024/01/26 01:56:11;;;;;;;361.05;164.75;;;-0.70;99.90;;;;;;5095225;28;20028;-56
2024/01/26 01:58:39;;;;;;;393.20;180.25;;;-0.70;99.90;;;;;;5094829;28;20039;-56
2024/01/26 02:01:05;;;;;;;382.42;164.95;;;-0.70;99.90;;;;;;5095102;28;20036;-56
2024/01/26 02:03:31;;;;;;;391.58;173.68;;;-0.70;99.90;;;;;;5095160;28;20043;-56
2024/01/26 02:05:57;;;;;;;410.40;178.52;;;-0.70;99.90;;;;;;5094772;28;20032;-56
2024/01/26 02:08:23;;;;;;;353.63;154.68;;;-0.70;99.90;;;;;;5094798;28;20032;-56
2024/01/26 02:10:49;;;;;;;367.90;161.30;;;-0.70;99.90;;;;;;5094940;28;20534;-56
2024/01/26 02:13:15;;;;;;;311.38;137.13;;;-0.80;99.90;;;;;;5094693;28;20020;-56
2024/01/26 02:15:41;;;;;;;331.98;143.90;;;-0.70;99.90;;;;;;5094956;28;20032;-56
2024/01/26 02:18:07;;;;;;;288.27;129.73;;;-0.80;99.90;;;;;;5094826;28;20039;-56
2024/01/26 02:20:33;;;;;;;240.77;108.15;;;-0.80;99.90;;;;;;5096088;28;20051;-56
2024/01/26 02:22:59;;;;;;;294.65;130.30;;;-0.80;99.90;;;;;;5098503;28;20024;-56
2024/01/26 02:25:24;;;;;;;230.93;106.30;;;-0.90;99.90;;;;;;5098377;28;20497;-56
2024/01/26 02:27:52;;;;;;;246.35;111.65;;;-0.90;99.90;;;;;;5098153;28;20028;-56
2024/01/26 02:30:18;;;;;;;267.40;118.00;;;-0.90;99.90;;;;;;5098383;28;20021;-56
2024/01/26 02:32:44;;;;;;;283.52;129.45;;;-1.00;99.90;;;;;;5098426;28;20032;-56
2024/01/26 02:35:10;;;;;;;341.55;152.80;;;-1.00;99.90;;;;;;5098139;28;20020;-56
2024/01/26 02:37:36;;;;;;;380.67;173.40;;;-1.00;99.90;;;;;;5098010;28;20366;-56
2024/01/26 02:40:03;;;;;;;349.58;152.82;;;-1.00;99.90;;;;;;5098274;28;20056;-56
2024/01/26 02:42:28;;;;;;;349.67;152.25;;;-1.20;99.90;;;;;;5097856;28;20070;-56
2024/01/26 02:44:55;;;;;;;340.85;152.05;;;-1.30;99.90;;;;;;5098166;28;20032;-56
2024/01/26 02:47:20;;;;;;;363.65;162.05;;;-1.20;99.90;;;;;;5098062;28;20063;-56
2024/01/26 02:49:46;;;;;;;388.40;168.93;;;-1.20;99.90;;;;;;5098131;28;20025;-56
2024/01/26 02:52:12;;;;;;;387.00;174.57;;;-1.10;99.90;;;;;;5098070;28;20488;-56
2024/01/26 02:54:38;;;;;;;357.90;158.00;;;-1.00;99.90;;;;;;5097731;28;20036;-56
2024/01/26 02:57:04;;;;;;;338.95;153.70;;;-1.10;99.90;;;;;;5095592;28;20035;-56
2024/01/26 02:59:30;;;;;;;362.85;160.18;;;-1.10;99.90;;;;;;5097677;28;20024;-56
2024/01/26 03:01:56;;;;;;;380.23;169.77;;;-0.90;99.90;;;;;;5097846;28;20039;-56
2024/01/26 03:04:22;;;;;;;407.63;181.48;;;-0.80;99.90;;;;;;5097539;28;20024;-56
2024/01/26 03:06:50;;;;;;;423.92;186.10;;;-0.80;99.90;;;;;;5096304;28;20081;-56
2024/01/26 03:09:15;;;;;;;366.38;162.68;;;-0.90;99.90;;;;;;5097354;28;20038;-56
2024/01/26 03:11:42;;;;;;;370.23;161.02;;;-0.80;99.90;;;;;;5097363;28;20095;-56
2024/01/26 03:14:09;;;;;;;397.75;173.00;;;-0.70;99.90;;;;;;5097512;28;20081;-56
2024/01/26 03:16:38;;;;;;;381.05;166.50;;;-0.70;99.90;;;;;;5097537;28;20412;-56
2024/01/26 03:19:04;;;;;;;367.02;162.27;;;-0.60;99.90;;;;;;5097449;28;20028;-56
2024/01/26 03:21:30;;;;;;;350.58;152.35;;;-0.60;99.90;;;;;;5097476;28;20039;-56
2024/01/26 03:23:56;;;;;;;331.95;142.60;;;-0.80;99.90;;;;;;5097080;28;20181;-56
2024/01/26 03:26:22;;;;;;;342.60;149.80;;;-0.70;99.90;;;;;;5097073;28;20036;-56
2024/01/26 03:28:49;;;;;;;321.20;139.38;;;-0.80;99.90;;;;;;5097212;28;20028;-56
2024/01/26 03:31:15;;;;;;;314.30;141.45;;;-0.90;99.90;;;;;;5097148;28;20020;-56
2024/01/26 03:33:41;;;;;;;304.67;131.95;;;-0.90;99.90;;;;;;5096868;28;20036;-56
2024/01/26 03:36:07;;;;;;;304.42;138.00;;;-1.00;99.90;;;;;;5097133;28;20027;-56
2024/01/26 03:38:33;;;;;;;310.00;138.07;;;-1.10;99.90;;;;;;5096770;28;20067;-57
2024/01/26 03:41:00;;;;;;;323.48;141.20;;;-1.10;99.90;;;;;;5096919;28;20055;-56
2024/01/26 03:43:26;;;;;;;302.73;136.18;;;-1.00;99.90;;;;;;5096998;28;20024;-56
2024/01/26 03:45:52;;;;;;;296.35;131.68;;;-1.00;99.90;;;;;;5096970;28;20028;-56
2024/01/26 03:48:18;;;;;;;311.02;135.57;;;-1.10;99.90;;;;;;5096500;28;20035;-56
2024/01/26 03:50:44;;;;;;;295.60;131.55;;;-1.00;99.90;;;;;;5096966;28;20020;-56
2024/01/26 03:53:10;;;;;;;282.45;126.97;;;-1.20;99.90;;;;;;5096760;28;20134;-56
2024/01/26 03:55:37;;;;;;;287.88;130.60;;;-1.30;99.90;;;;;;5096591;28;20100;-56
2024/01/26 03:58:03;;;;;;;288.55;126.22;;;-1.30;99.90;;;;;;5096730;28;20535;-56
2024/01/26 04:00:29;;;;;;;292.45;129.45;;;-1.40;99.90;;;;;;5096668;28;20054;-56
2024/01/26 04:02:55;;;;;;;305.95;138.27;;;-1.40;99.90;;;;;;5096530;28;20032;-56
2024/01/26 04:05:21;;;;;;;309.65;138.23;;;-1.40;99.90;;;;;;5096872;28;20062;-56
2024/01/26 04:07:47;;;;;;;311.38;136.15;;;-1.40;99.90;;;;;;5096303;28;20050;-56
2024/01/26 04:10:13;;;;;;;295.60;130.85;;;-1.30;99.90;;;;;;5096505;28;20047;-56
2024/01/26 04:12:39;;;;;;;305.25;134.10;;;-1.30;99.90;;;;;;5096412;28;20028;-56
2024/01/26 04:15:05;;;;;;;282.92;126.78;;;-1.30;99.90;;;;;;5096449;28;20225;-56
2024/01/26 04:17:31;;;;;;;290.10;128.25;;;-1.30;99.90;;;;;;5096159;28;20116;-56
2024/01/26 04:19:57;;;;;;;275.55;121.70;;;-1.40;99.90;;;;;;5096168;28;20028;-56
2024/01/26 04:22:23;;;;;;;262.85;117.90;;;-1.60;99.90;;;;;;5096351;28;20141;-56
2024/01/26 04:24:48;;;;;;;299.17;128.63;;;-1.50;99.90;;;;;;5095935;28;20043;-56
2024/01/26 04:27:14;;;;;;;287.60;127.15;;;-1.50;99.90;;;;;;5095955;28;20028;-56
2024/01/26 04:29:40;;;;;;;337.02;144.07;;;-1.60;99.90;;;;;;5096153;28;20537;-56
2024/01/26 04:32:06;;;;;;;348.88;148.50;;;-1.50;99.90;;;;;;5096104;28;20024;-56
2024/01/26 04:34:32;;;;;;;296.38;126.90;;;-1.50;99.90;;;;;;5095932;28;20032;-56
2024/01/26 04:36:58;;;;;;;305.88;133.40;;;-1.50;99.90;;;;;;5096436;28;20044;-56
2024/01/26 04:39:24;;;;;;;263.52;121.22;;;-1.40;99.90;;;;;;5095966;28;20039;-56
2024/01/26 04:41:49;;;;;;;258.08;116.03;;;-1.40;99.90;;;;;;5095739;28;20024;-56
2024/01/26 04:44:15;;;;;;;272.65;116.90;;;-1.30;99.90;;;;;;5095458;28;20032;-56
2024/01/26 04:46:41;;;;;;;242.13;114.90;;;-1.30;99.90;;;;;;5096036;28;20469;-56
2024/01/26 04:49:07;;;;;;;238.25;116.15;;;-1.30;99.90;;;;;;5095691;28;20032;-56
2024/01/26 04:51:33;;;;;;;233.10;107.57;;;-1.40;99.90;;;;;;5095811;28;20059;-56
2024/01/26 04:53:58;;;;;;;235.50;105.05;;;-1.40;99.90;;;;;;5095653;28;20020;-56
2024/01/26 04:56:24;;;;;;;232.50;102.55;;;-1.40;99.90;;;;;;5095470;28;20488;-56
2024/01/26 04:58:50;;;;;;;218.43;96.93;;;-1.50;99.90;;;;;;5095698;28;20032;-56
2024/01/26 05:01:16;;;;;;;234.70;102.65;;;-1.50;99.90;;;;;;5095371;28;20032;-56
2024/01/26 05:03:42;;;;;;;220.05;102.05;;;-1.50;99.90;;;;;;5095425;28;20224;-56
2024/01/26 05:06:08;;;;;;;224.70;103.05;;;-1.50;99.90;;;;;;5095569;28;20024;-56
2024/01/26 05:08:34;;;;;;;240.57;110.78;;;-1.60;99.90;;;;;;5095240;28;20020;-56
2024/01/26 05:10:59;;;;;;;222.88;99.45;;;-1.60;99.90;;;;;;5095477;28;20020;-56
2024/01/26 05:13:25;;;;;;;231.80;106.32;;;-1.60;99.90;;;;;;5095475;28;20069;-56
2024/01/26 05:15:51;;;;;;;241.55;106.63;;;-1.70;99.90;;;;;;5095690;28;20462;-56
2024/01/26 05:18:17;;;;;;;228.68;104.70;;;-1.70;99.90;;;;;;5095183;28;20122;-56
2024/01/26 05:20:43;;;;;;;214.35;99.75;;;-1.70;99.90;;;;;;5095437;28;20032;-56
2024/01/26 05:23:09;;;;;;;211.40;93.40;;;-1.70;99.90;;;;;;5095189;28;20032;-56
2024/01/26 05:25:34;;;;;;;211.82;92.97;;;-1.70;99.90;;;;;;5095305;28;20047;-56
2024/01/26 05:28:00;;;;;;;233.27;102.47;;;-1.60;99.90;;;;;;5095557;28;20035;-56
2024/01/26 05:30:26;;;;;;;267.15;117.55;;;-1.60;99.90;;;;;;5095324;28;20036;-56
2024/01/26 05:32:52;;;;;;;265.77;125.88;;;-1.50;99.90;;;;;;5095214;28;20024;-56
2024/01/26 05:35:18;;;;;;;241.73;110.00;;;-1.50;99.90;;;;;;5095507;28;20066;-56
2024/01/26 05:37:44;;;;;;;256.30;119.38;;;-1.50;99.90;;;;;;5095298;28;20024;-56
2024/01/26 05:40:11;;;;;;;221.75;100.40;;;-1.60;99.90;;;;;;5094980;28;20040;-56
2024/01/26 05:42:37;;;;;;;204.90;95.85;;;-1.50;99.90;;;;;;5095246;28;20125;-56
2024/01/26 05:45:04;;;;;;;217.77;96.28;;;-1.50;99.90;;;;;;5095075;28;20039;-56
2024/01/26 05:47:30;;;;;;;211.63;101.45;;;-1.50;99.90;;;;;;5094887;28;20056;-56
2024/01/26 05:49:56;;;;;;;194.48;89.20;;;-1.50;99.90;;;;;;5095161;28;20039;-56
2024/01/26 05:52:22;;;;;;;207.45;96.28;;;-1.50;99.90;;;;;;5095462;28;20052;-56
2024/01/26 05:54:47;;;;;;;219.00;98.72;;;-1.50;99.90;;;;;;5094887;28;20062;-56
2024/01/26 05:57:15;;;;;;;218.68;97.03;;;-1.50;99.90;;;;;;5098961;28;20032;-56
2024/01/26 05:59:42;;;;;;;209.40;96.57;;;-1.50;99.90;;;;;;5099074;28;20117;-56
2024/01/26 06:02:08;;;;;;;210.93;92.90;;;-1.60;99.90;;;;;;5098773;28;20151;-56
2024/01/26 06:04:34;;;;;;;194.88;93.07;;;-1.70;99.90;;;;;;5098894;28;20055;-56
2024/01/26 06:07:00;;;;;;;207.43;95.25;;;-1.70;99.90;;;;;;5098673;28;20139;-56
2024/01/26 06:09:26;;;;;;;210.07;97.50;;;-1.70;99.90;;;;;;5098043;28;20036;-56
2024/01/26 06:11:52;;;;;;;193.00;93.47;;;-1.70;99.90;;;;;;5098271;28;20035;-56
2024/01/26 06:14:19;;;;;;;216.48;99.80;;;-1.70;99.90;;;;;;5098204;28;20052;-56
2024/01/26 06:16:48;;;;;;;178.70;86.30;;;-1.60;99.90;;;;;;5098184;28;20039;-56
2024/01/26 06:19:15;;;;;;;141.30;67.77;;;-1.60;99.90;;;;;;5098191;28;20040;-56
2024/01/26 06:21:41;;;;;;;191.55;85.50;;;-1.60;99.90;;;;;;5098711;28;20495;-56
2024/01/26 06:24:07;;;;;;;184.85;84.95;;;-1.50;99.90;;;;;;5097995;28;20028;-56
2024/01/26 06:26:33;;;;;;;171.68;81.03;;;-1.70;99.90;;;;;;5097228;28;20097;-56
2024/01/26 06:28:59;;;;;;;189.48;84.43;;;-1.70;99.90;;;;;;5098843;28;20572;-56
2024/01/26 06:31:26;;;;;;;190.45;86.00;;;-1.70;99.90;;;;;;5097099;28;20028;-56
2024/01/26 06:33:52;;;;;;;196.55;90.18;;;-1.60;99.90;;;;;;5098262;28;21082;-56
2024/01/26 06:36:18;;;;;;;196.15;91.30;;;-1.60;99.90;;;;;;5095833;28;20047;-56
2024/01/26 06:38:44;;;;;;;218.13;98.40;;;-1.60;99.90;;;;;;5091504;28;20085;-56
2024/01/26 06:41:10;;;;;;;361.35;124.70;;;-1.60;99.90;;;;;;5097200;28;20091;-56
2024/01/26 06:43:36;;;;;;;318.30;110.47;;;-1.60;99.90;;;;;;5097898;28;20028;-56
2024/01/26 06:46:02;;;;;;;215.23;97.00;;;-1.50;99.90;;;;;;5097314;28;20377;-56
2024/01/26 06:48:28;;;;;;;218.63;99.25;;;-1.50;99.90;;;;;;5096214;28;20127;-56
2024/01/26 06:50:53;;;;;;;200.40;93.50;;;-1.40;99.90;;;;;;5098098;28;20028;-57
2024/01/26 06:53:21;;;;;;;201.10;93.95;;;-1.00;99.90;;;;;;5097624;28;20035;-57
2024/01/26 06:55:47;;;;;;;228.95;100.13;;;-0.50;99.90;;;;;;5097139;28;20024;-57
2024/01/26 06:58:13;;;;;;;302.13;125.38;;;0.10;99.90;;;;;;5097138;28;20058;-57
2024/01/26 07:00:39;;;;;;;747.83;161.02;;;0.80;99.90;;;;;;5094341;28;20032;-57
2024/01/26 07:03:05;;;;;;;726.05;166.95;;;1.50;99.90;;;;;;5096259;28;20027;-57
2024/01/26 07:05:30;;;;;;;292.70;128.75;;;2.00;99.90;;;;;;5096999;28;20028;-57
2024/01/26 07:07:56;;;;;;;371.25;131.18;;;2.30;99.90;;;;;;5095878;28;20028;-57
2024/01/26 07:10:23;;;;;;;319.63;137.63;;;2.90;99.90;;;;;;5091705;28;20047;-57
2024/01/26 07:12:49;;;;;;;274.27;136.77;;;3.30;99.90;;;;;;5095945;28;20028;-57
2024/01/26 07:15:15;;;;;;;313.23;140.15;;;3.70;99.90;;;;;;5097773;28;20031;-57
2024/01/26 07:17:41;;;;;;;311.38;144.80;;;4.20;99.90;;;;;;5094876;28;20035;-57
2024/01/26 07:20:07;;;;;;;323.17;149.63;;;4.50;99.90;;;;;;5094248;28;20032;-57
2024/01/26 07:22:33;;;;;;;320.25;143.10;;;4.70;99.60;;;;;;5095213;28;20351;-57
2024/01/26 07:24:59;;;;;;;334.00;151.35;;;5.20;97.10;;;;;;5095715;28;20073;-57
2024/01/26 07:27:25;;;;;;;332.25;154.25;;;5.70;97.00;;;;;;5095945;28;20028;-57
2024/01/26 07:29:51;;;;;;;369.42;170.95;;;6.10;95.70;;;;;;5095970;28;20024;-58
2024/01/26 07:32:17;;;;;;;352.15;168.75;;;7.10;93.20;;;;;;5095697;28;20024;-58
2024/01/26 07:34:43;;;;;;;319.83;149.05;;;7.40;90.90;;;;;;5096177;28;20027;-57
2024/01/26 07:37:08;;;;;;;285.83;139.43;;;8.10;90.60;;;;;;5091302;28;20020;-57
2024/01/26 07:39:34;;;;;;;268.10;127.88;;;8.90;83.60;;;;;;5095921;28;20020;-58
2024/01/26 07:42:00;;;;;;;257.30;121.32;;;8.70;83.10;;;;;;5096797;28;20016;-57
2024/01/26 07:44:26;;;;;;;240.20;119.53;;;8.90;79.00;;;;;;5096348;28;20042;-57
2024/01/26 07:46:52;;;;;;;239.20;117.75;;;9.20;78.50;;;;;;5095035;28;20457;-58
2024/01/26 07:49:18;;;;;;;260.20;127.38;;;10.10;74.10;;;;;;5095345;28;20036;-58
2024/01/26 07:51:43;;;;;;;273.98;133.52;;;10.30;75.00;;;;;;5096670;28;20028;-58
2024/01/26 07:54:09;;;;;;;324.48;151.10;;;11.30;67.50;;;;;;5096595;28;20151;-57
2024/01/26 07:56:35;;;;;;;318.40;147.40;;;10.50;64.00;;;;;;5096748;28;20487;-58
2024/01/26 07:59:01;;;;;;;302.83;141.00;;;10.60;63.80;;;;;;5096344;28;20031;-58
2024/01/26 08:01:27;;;;;;;288.67;137.20;;;10.70;63.20;;;;;;5093682;28;20024;-58
2024/01/26 08:03:53;;;;;;;241.35;116.57;;;10.50;64.30;;;;;;5095268;28;20110;-58
2024/01/26 08:06:19;;;;;;;214.40;109.13;;;10.70;65.30;;;;;;5095518;28;20052;-58
2024/01/26 08:08:45;;;;;;;234.98;119.45;;;10.70;63.70;;;;;;5094558;28;20050;-58
2024/01/26 08:11:11;;;;;;;231.10;112.13;;;10.60;63.40;;;;;;5095628;28;20020;-58
2024/01/26 08:13:37;;;;;;;254.10;126.60;;;11.10;64.50;;;;;;5095454;28;20020;-58
2024/01/26 08:16:03;;;;;;;258.80;133.60;;;11.40;64.00;;;;;;5092042;28;20020;-58
2024/01/26 08:18:28;;;;;;;257.75;129.88;;;11.50;62.00;;;;;;5094616;28;20028;-58
2024/01/26 08:20:55;;;;;;;228.82;120.50;;;11.60;60.80;;;;;;5095622;28;20384;-58
2024/01/26 08:23:21;;;;;;;237.20;122.35;;;12.10;57.50;;;;;;5095214;28;20036;-58
2024/01/26 08:25:46;;;;;;;274.02;138.20;;;12.00;60.80;;;;;;5095353;28;20118;-58
2024/01/26 08:28:12;;;;;;;318.33;156.27;;;11.50;60.90;;;;;;5095403;28;20020;-58
2024/01/26 08:30:38;;;;;;;323.35;156.60;;;11.50;62.10;;;;;;5095216;28;20023;-58
2024/01/26 08:33:05;;;;;;;335.83;169.13;;;11.60;60.60;;;;;;5095237;28;20031;-58
2024/01/26 08:35:30;;;;;;;355.42;179.77;;;11.40;59.80;;;;;;5093724;28;20028;-58
2024/01/26 08:37:56;;;;;;;346.02;180.60;;;11.40;60.60;;;;;;5095557;28;20120;-58
2024/01/26 08:40:22;;;;;;;369.73;192.10;;;11.70;61.70;;;;;;5091021;28;20084;-58
2024/01/26 08:42:48;;;;;;;393.73;205.27;;;11.90;58.80;;;;;;5093016;28;20036;-58
2024/01/26 08:45:14;;;;;;;393.33;207.55;;;11.40;59.70;;;;;;5094638;28;20118;-58
2024/01/26 08:47:40;;;;;;;362.00;196.82;;;12.40;58.30;;;;;;5095171;28;20028;-58
2024/01/26 08:50:06;;;;;;;356.00;181.13;;;12.30;56.60;;;;;;5096228;28;20036;-58
2024/01/26 08:52:32;;;;;;;298.85;153.30;;;12.40;57.60;;;;;;5095753;28;20085;-58
2024/01/26 08:54:58;;;;;;;250.23;130.27;;;13.20;56.80;;;;;;5095600;28;20028;-58
2024/01/26 08:57:24;;;;;;;268.90;128.23;;;12.90;57.40;;;;;;5095487;28;20040;-58
2024/01/26 08:59:50;;;;;;;270.58;140.13;;;12.20;55.60;;;;;;5095700;28;20377;-58
2024/01/26 09:02:15;;;;;;;281.98;145.52;;;12.60;57.80;;;;;;5094564;28;20036;-58
2024/01/26 09:04:41;;;;;;;304.30;143.05;;;12.90;55.40;;;;;;5090900;28;20088;-58
2024/01/26 09:07:08;;;;;;;303.83;147.82;;;12.90;56.10;;;;;;5083830;28;20406;-58
2024/01/26 09:09:33;;;;;;;268.30;136.73;;;13.50;55.60;;;;;;5075399;28;20017;-58
2024/01/26 09:11:59;;;;;;;237.60;123.05;;;12.40;56.80;;;;;;5090558;28;20582;-58
2024/01/26 09:14:25;;;;;;;227.32;119.43;;;12.90;55.00;;;;;;5092511;28;20020;-58
2024/01/26 09:16:52;;;;;;;236.20;118.57;;;13.50;54.20;;;;;;5093298;28;20098;-58
2024/01/26 09:19:18;;;;;;;236.93;107.63;;;13.70;53.50;;;;;;5095125;28;20039;-58
2024/01/26 09:21:45;;;;;;;198.10;100.22;;;14.30;51.70;;;;;;5092617;28;20493;-58
2024/01/26 09:24:10;;;;;;;190.63;98.30;;;14.60;51.00;;;;;;5094551;28;20032;-58
2024/01/26 09:26:39;;;;;;;187.95;94.80;;;14.70;51.00;;;;;;5093955;28;20050;-58
2024/01/26 09:29:07;;;;;;;187.40;95.40;;;15.10;50.20;;;;;;5095336;28;20048;-58
2024/01/26 09:31:33;;;;;;;184.77;91.45;;;15.20;51.00;;;;;;5097528;28;20539;-58
2024/01/26 09:34:00;;;;;;;172.30;89.70;;;15.60;49.00;;;;;;5085744;28;20020;-58
2024/01/26 09:36:26;;;;;;;182.05;93.10;;;15.10;49.00;;;;;;5096551;28;20034;-58
2024/01/26 09:38:52;;;;;;;191.27;103.13;;;15.70;47.90;;;;;;5091502;28;20041;-58
2024/01/26 09:41:18;;;;;;;204.45;107.70;;;15.40;48.40;;;;;;5093944;28;20466;-58
2024/01/26 09:43:43;;;;;;;204.20;106.03;;;15.00;47.20;;;;;;5098753;28;20119;-58
2024/01/26 09:46:10;;;;;;;172.73;96.03;;;15.00;49.00;;;;;;5098452;28;20028;-58
2024/01/26 09:48:39;;;;;;;164.25;89.65;;;16.10;47.10;;;;;;5096677;28;20047;-58
2024/01/26 09:51:05;;;;;;;180.10;88.65;;;16.60;45.00;;;;;;5090233;28;20028;-59
2024/01/26 09:53:33;;;;;;;146.82;81.80;;;16.90;44.40;;;;;;5078338;28;20113;-58
2024/01/26 09:56:00;;;;;;;150.02;82.35;;;16.40;44.40;;;;;;5077364;28;20090;-58
2024/01/26 09:58:26;;;;;;;152.25;79.38;;;16.40;44.10;;;;;;5091253;28;20486;-58
2024/01/26 10:00:55;;;;;;;147.27;77.18;;;16.70;42.30;;;;;;5090291;28;20111;-58
2024/01/26 10:03:24;;;;;;;143.52;78.72;;;16.70;42.50;;;;;;5090383;28;20454;-59
2024/01/26 10:05:51;;;;;;;145.38;80.63;;;16.30;43.60;;;;;;5098114;28;20035;-58
2024/01/26 10:08:17;;;;;;;158.73;86.22;;;16.80;42.40;;;;;;5098084;28;20124;-58
2024/01/26 10:10:42;;;;;;;138.98;77.93;;;16.60;42.90;;;;;;5097632;28;20485;-59
2024/01/26 10:13:09;;;;;;;154.80;82.95;;;17.30;40.60;;;;;;5093704;28;20028;-58
2024/01/26 10:15:36;;;;;;;133.30;78.05;;;17.00;39.90;;;;;;5097884;28;20020;-58
2024/01/26 10:18:02;;;;;;;131.27;79.13;;;17.00;39.90;;;;;;5095030;28;20085;-59
2024/01/26 10:20:28;;;;;;;149.60;77.93;;;17.30;39.50;;;;;;5097402;28;20040;-58
2024/01/26 10:22:55;;;;;;;119.20;67.80;;;16.90;39.70;;;;;;5096450;28;20042;-58
2024/01/26 10:25:20;;;;;;;117.45;65.55;;;16.80;38.80;;;;;;5091746;28;20382;-58
2024/01/26 10:27:46;;;;;;;132.13;69.57;;;17.10;39.10;;;;;;5090917;28;20028;-58
2024/01/26 10:30:13;;;;;;;150.20;78.28;;;17.60;37.70;;;;;;5086525;28;20546;-58
2024/01/26 10:32:40;;;;;;;130.20;70.30;;;17.00;39.60;;;;;;5096100;28;20462;-58
2024/01/26 10:35:07;;;;;;;125.55;67.80;;;17.50;39.30;;;;;;5094733;28;20023;-58
2024/01/26 10:37:35;;;;;;;102.13;55.90;;;17.90;37.00;;;;;;5095596;28;20031;-58
2024/01/26 10:40:04;;;;;;;114.13;57.28;;;17.50;36.50;;;;;;5098204;28;20052;-58
2024/01/26 10:42:30;;;;;;;123.32;62.47;;;17.60;35.70;;;;;;5094443;28;20493;-58
2024/01/26 10:44:58;;;;;;;114.57;55.95;;;17.70;37.00;;;;;;5097480;28;20535;-58
2024/01/26 10:47:26;;;;;;;74.72;38.92;;;17.30;36.20;;;;;;5097322;28;20125;-58
2024/01/26 10:49:56;;;;;;;51.42;24.10;;;17.20;33.70;;;;;;5091969;28;20023;-58
2024/01/26 10:52:23;;;;;;;83.28;43.63;;;17.10;31.30;;;;;;5086436;28;20027;-58
2024/01/26 10:54:50;;;;;;;59.47;30.98;;;17.00;34.40;;;;;;5077745;28;20025;-58
2024/01/26 10:57:19;;;;;;;77.82;33.92;;;16.20;32.70;;;;;;5092518;28;20371;-58
2024/01/26 10:59:46;;;;;;;39.92;19.13;;;16.20;34.70;;;;;;5088311;28;20032;-58
2024/01/26 11:02:27;;;;;;;43.78;17.88;;;15.80;32.20;;;;;;5077557;28;20068;-58
2024/01/26 11:04:53;;;;;;;52.40;22.38;;;15.90;33.80;;;;;;5088105;28;20458;-59
2024/01/26 11:07:20;;;;;;;48.55;23.88;;;16.30;33.20;;;;;;5095993;28;20032;-58
2024/01/26 11:09:46;;;;;;;45.72;20.92;;;16.30;33.20;;;;;;5097083;28;20028;-58
2024/01/26 11:12:25;;;;;;;47.78;21.20;;;16.20;33.20;;;;;;5095744;28;20024;-58
2024/01/26 11:15:06;;;;;;;44.00;20.45;;;16.50;32.00;;;;;;5093770;28;20043;-58
2024/01/26 11:17:56;;;;;;;44.85;21.08;;;16.10;33.50;;;;;;5094296;28;20044;-58
2024/01/26 11:20:29;;;;;;;39.88;22.73;;;16.50;31.90;;;;;;5097583;28;20053;-59
2024/01/26 11:23:21;;;;;;;50.15;22.75;;;16.40;32.60;;;;;;5097786;28;20039;-58
2024/01/26 11:25:52;;;;;;;45.25;21.50;;;15.90;32.80;;;;;;5093877;28;20043;-58
2024/01/26 11:28:25;;;;;;;45.30;20.13;;;15.90;33.40;;;;;;5094658;28;20043;-58
2024/01/26 11:30:53;;;;;;;43.25;19.23;;;16.00;33.20;;;;;;5093287;28;20027;-58
2024/01/26 11:33:21;;;;;;;37.33;18.60;;;16.40;32.70;;;;;;5097093;28;20020;-58
2024/01/26 11:35:48;;;;;;;48.20;19.38;;;16.00;32.50;;;;;;5096199;28;20019;-58
2024/01/26 11:38:14;;;;;;;36.35;15.68;;;16.50;34.80;;;;;;5095868;28;20036;-58
2024/01/26 11:40:40;;;;;;;38.75;16.65;;;17.00;30.80;;;;;;5096666;28;20505;-58
2024/01/26 11:43:07;;;;;;;46.08;17.13;;;17.80;31.20;;;;;;5096725;28;20028;-58
2024/01/26 11:45:43;;;;;;;36.40;15.45;;;17.40;29.80;;;;;;5097440;28;20032;-58
2024/01/26 11:48:11;;;;;;;46.85;17.95;;;17.80;30.20;;;;;;5097081;28;20044;-58
2024/01/26 11:50:38;;;;;;;46.80;17.10;;;17.60;28.90;;;;;;5087410;28;20036;-58
2024/01/26 11:53:04;;;;;;;54.00;20.23;;;17.60;29.70;;;;;;5093682;28;20020;-59
2024/01/26 11:55:31;;;;;;;50.05;21.75;;;18.20;29.70;;;;;;5095133;28;20060;-58
2024/01/26 11:57:57;;;;;;;60.00;20.77;;;18.20;29.20;;;;;;5095664;28;20064;-58
2024/01/26 12:00:23;;;;;;;44.22;21.73;;;16.70;29.70;;;;;;5096613;28;20070;-58
2024/01/26 12:02:49;;;;;;;57.08;22.83;;;16.90;30.70;;;;;;5094940;28;20022;-58
2024/01/26 12:05:19;;;;;;;50.05;21.23;;;17.30;31.20;;;;;;5094264;28;20098;-58
2024/01/26 12:07:45;;;;;;;58.45;24.35;;;17.50;30.00;;;;;;5093353;28;20051;-58
2024/01/26 12:10:14;;;;;;;72.47;24.90;;;17.80;29.00;;;;;;5094895;28;20086;-58